sensor_id;sensor_type;location;lat;lon;timestamp;pressure;altitude;pressure_sealevel;temperature;humidity
10658;BME280;5377;43.276;26.930;2022-07-24T00:02:13;99038.16;;;23.44;69.94
10658;BME280;5377;43.276;26.930;2022-07-24T00:04:40;99042.75;;;23.25;71.27
10658;BME280;5377;43.276;26.930;2022-07-24T00:07:07;99028.91;;;23.11;72.57
10658;BME280;5377;43.276;26.930;2022-07-24T00:09:34;99014.50;;;23.06;73.25
10658;BME280;5377;43.276;26.930;2022-07-24T00:12:03;99035.19;;;23.12;74.17
10658;BME280;5377;43.276;26.930;2022-07-24T00:14:29;98925.72;;;22.40;74.50
10658;BME280;5377;43.276;26.930;2022-07-24T00:16:56;99004.13;;;23.02;73.28
10658;BME280;5377;43.276;26.930;2022-07-24T00:19:24;99030.44;;;22.93;75.30
10658;BME280;5377;43.276;26.930;2022-07-24T00:21:51;99019.53;;;22.88;75.77
10658;BME280;5377;43.276;26.930;2022-07-24T00:24:18;99027.56;;;23.09;75.14
10658;BME280;5377;43.276;26.930;2022-07-24T00:26:45;99026.41;;;23.15;74.29
10658;BME280;5377;43.276;26.930;2022-07-24T00:29:13;99014.72;;;23.09;73.93
10658;BME280;5377;43.276;26.930;2022-07-24T00:31:40;98935.25;;;22.42;74.64
10658;BME280;5377;43.276;26.930;2022-07-24T00:34:07;98997.81;;;22.73;75.53
10658;BME280;5377;43.276;26.930;2022-07-24T00:36:34;98994.13;;;22.93;73.05
10658;BME280;5377;43.276;26.930;2022-07-24T00:39:00;99013.69;;;23.05;72.35
10658;BME280;5377;43.276;26.930;2022-07-24T00:41:27;98986.22;;;22.91;72.89
10658;BME280;5377;43.276;26.930;2022-07-24T00:44:05;99014.19;;;23.07;73.47
10658;BME280;5377;43.276;26.930;2022-07-24T00:46:35;98986.53;;;22.80;74.81
10658;BME280;5377;43.276;26.930;2022-07-24T00:49:04;99000.47;;;22.83;75.00
10658;BME280;5377;43.276;26.930;2022-07-24T00:51:31;98986.03;;;22.78;74.87
10658;BME280;5377;43.276;26.930;2022-07-24T00:54:02;99004.13;;;23.02;74.17
10658;BME280;5377;43.276;26.930;2022-07-24T00:56:29;99000.94;;;22.95;74.28
10658;BME280;5377;43.276;26.930;2022-07-24T00:58:56;98999.72;;;22.72;75.11
10658;BME280;5377;43.276;26.930;2022-07-24T01:01:23;98996.13;;;22.77;75.86
10658;BME280;5377;43.276;26.930;2022-07-24T01:03:51;98998.56;;;22.84;74.65
10658;BME280;5377;43.276;26.930;2022-07-24T01:06:18;98974.47;;;22.57;75.38
10658;BME280;5377;43.276;26.930;2022-07-24T01:08:46;98990.81;;;22.62;76.59
10658;BME280;5377;43.276;26.930;2022-07-24T01:11:13;98974.38;;;22.67;75.84
10658;BME280;5377;43.276;26.930;2022-07-24T01:13:40;98995.03;;;22.78;75.22
10658;BME280;5377;43.276;26.930;2022-07-24T01:16:08;98982.94;;;22.89;74.40
10658;BME280;5377;43.276;26.930;2022-07-24T01:18:35;98996.03;;;22.92;74.16
10658;BME280;5377;43.276;26.930;2022-07-24T01:21:04;98971.56;;;22.77;74.97
10658;BME280;5377;43.276;26.930;2022-07-24T01:23:31;98967.19;;;22.81;74.74
10658;BME280;5377;43.276;26.930;2022-07-24T01:25:58;98962.25;;;22.78;74.76
10658;BME280;5377;43.276;26.930;2022-07-24T01:28:25;98967.03;;;22.62;74.77
10658;BME280;5377;43.276;26.930;2022-07-24T01:30:52;98952.06;;;22.55;74.59
10658;BME280;5377;43.276;26.930;2022-07-24T01:33:19;98958.56;;;22.64;75.11
10658;BME280;5377;43.276;26.930;2022-07-24T01:35:46;98955.06;;;22.58;75.91
10658;BME280;5377;43.276;26.930;2022-07-24T01:38:14;98884.16;;;22.14;75.29
10658;BME280;5377;43.276;26.930;2022-07-24T01:40:41;98952.53;;;22.67;75.25
10658;BME280;5377;43.276;26.930;2022-07-24T01:43:08;98947.34;;;22.65;74.86
10658;BME280;5377;43.276;26.930;2022-07-24T01:45:35;98939.97;;;22.66;75.00
10658;BME280;5377;43.276;26.930;2022-07-24T01:48:03;98939.47;;;22.64;74.50
10658;BME280;5377;43.276;26.930;2022-07-24T01:50:30;98941.16;;;22.55;75.10
10658;BME280;5377;43.276;26.930;2022-07-24T01:52:57;98945.69;;;22.35;76.33
10658;BME280;5377;43.276;26.930;2022-07-24T01:55:29;98932.53;;;22.42;75.11
10658;BME280;5377;43.276;26.930;2022-07-24T01:57:56;98936.25;;;22.52;74.89
10658;BME280;5377;43.276;26.930;2022-07-24T02:00:23;98950.47;;;22.49;73.25
10658;BME280;5377;43.276;26.930;2022-07-24T02:02:50;98943.88;;;22.21;74.28
10658;BME280;5377;43.276;26.930;2022-07-24T02:05:17;98951.34;;;22.05;75.73
10658;BME280;5377;43.276;26.930;2022-07-24T02:07:44;98952.97;;;22.01;76.63
10658;BME280;5377;43.276;26.930;2022-07-24T02:10:13;98951.06;;;22.01;77.18
10658;BME280;5377;43.276;26.930;2022-07-24T02:12:42;98940.09;;;22.12;75.54
10658;BME280;5377;43.276;26.930;2022-07-24T02:15:09;98927.81;;;22.14;74.53
10658;BME280;5377;43.276;26.930;2022-07-24T02:17:36;98939.13;;;22.36;74.46
10658;BME280;5377;43.276;26.930;2022-07-24T02:20:04;98922.44;;;22.04;76.19
10658;BME280;5377;43.276;26.930;2022-07-24T02:22:31;98953.41;;;22.18;75.43
10658;BME280;5377;43.276;26.930;2022-07-24T02:24:59;98925.75;;;22.35;74.42
10658;BME280;5377;43.276;26.930;2022-07-24T02:27:26;98880.91;;;22.12;73.61
10658;BME280;5377;43.276;26.930;2022-07-24T02:29:54;98944.13;;;22.24;73.84
10658;BME280;5377;43.276;26.930;2022-07-24T02:32:21;98891.47;;;21.74;74.20
10658;BME280;5377;43.276;26.930;2022-07-24T02:34:48;98923.84;;;21.91;73.93
10658;BME280;5377;43.276;26.930;2022-07-24T02:37:15;98943.38;;;22.14;75.22
10658;BME280;5377;43.276;26.930;2022-07-24T02:39:42;98885.97;;;21.85;76.05
10658;BME280;5377;43.276;26.930;2022-07-24T02:42:09;98937.13;;;22.08;75.65
10658;BME280;5377;43.276;26.930;2022-07-24T02:44:36;98918.00;;;22.13;71.95
10658;BME280;5377;43.276;26.930;2022-07-24T02:47:05;98898.91;;;22.13;71.98
10658;BME280;5377;43.276;26.930;2022-07-24T02:49:32;98905.94;;;22.19;74.15
10658;BME280;5377;43.276;26.930;2022-07-24T02:51:58;98900.25;;;22.16;74.35
10658;BME280;5377;43.276;26.930;2022-07-24T02:54:25;98921.34;;;22.05;74.56
10658;BME280;5377;43.276;26.930;2022-07-24T02:56:52;98917.91;;;22.28;74.40
10658;BME280;5377;43.276;26.930;2022-07-24T02:59:19;98918.47;;;22.25;74.87
10658;BME280;5377;43.276;26.930;2022-07-24T03:01:46;98901.66;;;22.08;74.72
10658;BME280;5377;43.276;26.930;2022-07-24T03:04:15;98911.97;;;22.21;74.85
10658;BME280;5377;43.276;26.930;2022-07-24T03:06:41;98891.94;;;21.92;75.68
10658;BME280;5377;43.276;26.930;2022-07-24T03:09:09;98918.06;;;21.98;74.35
10658;BME280;5377;43.276;26.930;2022-07-24T03:11:36;98900.31;;;22.05;73.19
10658;BME280;5377;43.276;26.930;2022-07-24T03:14:02;98917.78;;;22.04;73.60
10658;BME280;5377;43.276;26.930;2022-07-24T03:16:29;98919.13;;;22.07;74.22
10658;BME280;5377;43.276;26.930;2022-07-24T03:18:56;98858.41;;;21.91;72.88
10658;BME280;5377;43.276;26.930;2022-07-24T03:21:25;98909.28;;;22.11;73.79
10658;BME280;5377;43.276;26.930;2022-07-24T03:23:51;98902.16;;;22.15;73.45
10658;BME280;5377;43.276;26.930;2022-07-24T03:26:21;98888.09;;;21.98;74.99
10658;BME280;5377;43.276;26.930;2022-07-24T03:28:48;98919.25;;;22.31;72.64
10658;BME280;5377;43.276;26.930;2022-07-24T03:31:15;98908.94;;;22.23;73.69
10658;BME280;5377;43.276;26.930;2022-07-24T03:33:42;98914.88;;;22.30;74.20
10658;BME280;5377;43.276;26.930;2022-07-24T03:36:09;98911.38;;;22.24;75.02
10658;BME280;5377;43.276;26.930;2022-07-24T03:38:37;98901.91;;;22.12;76.42
10658;BME280;5377;43.276;26.930;2022-07-24T03:41:04;98916.84;;;22.24;77.65
10658;BME280;5377;43.276;26.930;2022-07-24T03:43:31;98891.19;;;22.25;77.64
10658;BME280;5377;43.276;26.930;2022-07-24T03:45:58;98893.22;;;22.44;76.15
10658;BME280;5377;43.276;26.930;2022-07-24T03:48:25;98902.91;;;22.60;75.24
10658;BME280;5377;43.276;26.930;2022-07-24T03:50:51;98894.97;;;22.63;74.78
10658;BME280;5377;43.276;26.930;2022-07-24T03:53:18;98910.56;;;22.58;75.85
10658;BME280;5377;43.276;26.930;2022-07-24T03:55:47;98899.59;;;22.63;74.99
10658;BME280;5377;43.276;26.930;2022-07-24T03:58:13;98897.44;;;22.60;74.61
10658;BME280;5377;43.276;26.930;2022-07-24T04:00:40;98896.00;;;22.67;75.51
10658;BME280;5377;43.276;26.930;2022-07-24T04:03:07;98886.84;;;22.53;75.68
10658;BME280;5377;43.276;26.930;2022-07-24T04:05:34;98893.53;;;22.71;75.25
10658;BME280;5377;43.276;26.930;2022-07-24T04:08:01;98883.06;;;22.78;74.72
10658;BME280;5377;43.276;26.930;2022-07-24T04:10:28;98894.47;;;22.90;74.36
10658;BME280;5377;43.276;26.930;2022-07-24T04:12:56;98898.81;;;22.91;74.03
10658;BME280;5377;43.276;26.930;2022-07-24T04:15:23;98909.88;;;23.05;74.10
10658;BME280;5377;43.276;26.930;2022-07-24T04:17:50;98903.81;;;23.08;74.92
10658;BME280;5377;43.276;26.930;2022-07-24T04:20:17;98907.38;;;23.09;73.98
10658;BME280;5377;43.276;26.930;2022-07-24T04:22:43;98902.59;;;23.19;73.32
10658;BME280;5377;43.276;26.930;2022-07-24T04:25:11;98822.53;;;22.71;73.87
10658;BME280;5377;43.276;26.930;2022-07-24T04:27:38;98893.19;;;23.30;73.94
10658;BME280;5377;43.276;26.930;2022-07-24T04:30:08;98898.81;;;23.39;74.28
10658;BME280;5377;43.276;26.930;2022-07-24T04:32:35;98902.72;;;23.33;75.12
10658;BME280;5377;43.276;26.930;2022-07-24T04:35:02;98897.34;;;23.47;75.81
10658;BME280;5377;43.276;26.930;2022-07-24T04:37:30;98869.78;;;23.43;76.94
10658;BME280;5377;43.276;26.930;2022-07-24T04:39:57;98812.34;;;23.06;78.33
10658;BME280;5377;43.276;26.930;2022-07-24T04:42:24;98900.69;;;23.68;79.35
10658;BME280;5377;43.276;26.930;2022-07-24T04:44:50;98906.59;;;23.75;79.11
10658;BME280;5377;43.276;26.930;2022-07-24T04:47:19;98894.25;;;23.77;78.84
10658;BME280;5377;43.276;26.930;2022-07-24T04:49:46;98912.31;;;23.97;78.51
10658;BME280;5377;43.276;26.930;2022-07-24T04:52:13;98897.50;;;23.98;77.22
10658;BME280;5377;43.276;26.930;2022-07-24T04:54:40;98911.25;;;23.93;78.16
10658;BME280;5377;43.276;26.930;2022-07-24T04:57:06;98909.88;;;23.95;78.41
10658;BME280;5377;43.276;26.930;2022-07-24T04:59:33;98920.94;;;24.23;77.55
10658;BME280;5377;43.276;26.930;2022-07-24T05:02:00;98893.25;;;24.24;75.87
10658;BME280;5377;43.276;26.930;2022-07-24T05:04:29;98867.47;;;24.12;76.49
10658;BME280;5377;43.276;26.930;2022-07-24T05:06:56;98840.56;;;23.81;75.29
10658;BME280;5377;43.276;26.930;2022-07-24T05:09:23;98917.00;;;24.48;74.99
10658;BME280;5377;43.276;26.930;2022-07-24T05:11:50;98929.34;;;24.64;74.59
10658;BME280;5377;43.276;26.930;2022-07-24T05:14:17;98905.81;;;24.63;73.32
10658;BME280;5377;43.276;26.930;2022-07-24T05:16:44;98921.88;;;24.83;73.35
10658;BME280;5377;43.276;26.930;2022-07-24T05:19:11;98924.22;;;24.90;71.19
10658;BME280;5377;43.276;26.930;2022-07-24T05:21:39;98925.22;;;24.80;68.59
10658;BME280;5377;43.276;26.930;2022-07-24T05:24:06;98843.88;;;24.16;66.10
10658;BME280;5377;43.276;26.930;2022-07-24T05:26:33;98910.44;;;24.63;67.67
10658;BME280;5377;43.276;26.930;2022-07-24T05:29:02;98891.69;;;24.56;67.21
10658;BME280;5377;43.276;26.930;2022-07-24T05:31:29;98904.50;;;24.74;67.46
10658;BME280;5377;43.276;26.930;2022-07-24T05:33:56;98849.31;;;24.67;66.15
10658;BME280;5377;43.276;26.930;2022-07-24T05:36:24;98855.00;;;24.84;66.46
10658;BME280;5377;43.276;26.930;2022-07-24T05:38:52;98890.78;;;25.07;65.45
10658;BME280;5377;43.276;26.930;2022-07-24T05:41:19;98912.22;;;25.32;64.89
10658;BME280;5377;43.276;26.930;2022-07-24T05:43:46;98906.50;;;25.56;64.16
10658;BME280;5377;43.276;26.930;2022-07-24T05:46:13;98889.25;;;25.56;63.20
10658;BME280;5377;43.276;26.930;2022-07-24T05:48:40;98866.69;;;25.59;63.27
10658;BME280;5377;43.276;26.930;2022-07-24T05:51:07;98868.03;;;25.75;63.29
10658;BME280;5377;43.276;26.930;2022-07-24T05:53:34;98905.81;;;26.14;63.35
10658;BME280;5377;43.276;26.930;2022-07-24T05:56:03;98837.72;;;25.80;61.11
10658;BME280;5377;43.276;26.930;2022-07-24T05:58:30;98892.66;;;26.02;58.39
10658;BME280;5377;43.276;26.930;2022-07-24T06:00:57;98896.69;;;26.05;57.60
10658;BME280;5377;43.276;26.930;2022-07-24T06:03:24;98900.13;;;26.10;57.01
10658;BME280;5377;43.276;26.930;2022-07-24T06:05:51;98871.69;;;26.06;57.59
10658;BME280;5377;43.276;26.930;2022-07-24T06:08:18;98859.34;;;26.18;56.83
10658;BME280;5377;43.276;26.930;2022-07-24T06:10:45;98804.09;;;25.74;54.13
10658;BME280;5377;43.276;26.930;2022-07-24T06:13:13;98875.88;;;26.26;54.39
10658;BME280;5377;43.276;26.930;2022-07-24T06:15:40;98863.06;;;26.22;53.84
10658;BME280;5377;43.276;26.930;2022-07-24T06:18:07;98869.66;;;26.34;53.86
10658;BME280;5377;43.276;26.930;2022-07-24T06:20:34;98863.25;;;26.39;53.08
10658;BME280;5377;43.276;26.930;2022-07-24T06:23:01;98808.06;;;26.04;52.97
10658;BME280;5377;43.276;26.930;2022-07-24T06:25:28;98867.69;;;26.57;52.63
10658;BME280;5377;43.276;26.930;2022-07-24T06:27:55;98862.00;;;26.76;52.90
10658;BME280;5377;43.276;26.930;2022-07-24T06:30:26;98844.88;;;26.48;52.10
10658;BME280;5377;43.276;26.930;2022-07-24T06:32:56;98839.97;;;26.23;53.12
10658;BME280;5377;43.276;26.930;2022-07-24T06:35:23;98833.56;;;26.50;52.65
10658;BME280;5377;43.276;26.930;2022-07-24T06:37:50;98845.09;;;26.60;51.90
10658;BME280;5377;43.276;26.930;2022-07-24T06:40:18;98830.22;;;26.61;52.28
10658;BME280;5377;43.276;26.930;2022-07-24T06:42:46;98842.94;;;26.80;51.23
10658;BME280;5377;43.276;26.930;2022-07-24T06:45:14;98845.41;;;26.90;51.22
10658;BME280;5377;43.276;26.930;2022-07-24T06:47:42;98829.72;;;26.90;51.32
10658;BME280;5377;43.276;26.930;2022-07-24T06:50:11;98834.31;;;27.03;51.88
10658;BME280;5377;43.276;26.930;2022-07-24T06:52:38;98842.00;;;27.24;51.46
10658;BME280;5377;43.276;26.930;2022-07-24T06:55:06;98828.59;;;27.31;49.67
10658;BME280;5377;43.276;26.930;2022-07-24T06:57:33;98819.03;;;27.28;50.35
10658;BME280;5377;43.276;26.930;2022-07-24T07:00:00;98833.00;;;27.49;50.19
10658;BME280;5377;43.276;26.930;2022-07-24T07:02:27;98825.22;;;27.60;49.82
10658;BME280;5377;43.276;26.930;2022-07-24T07:04:56;98821.72;;;27.68;49.94
10658;BME280;5377;43.276;26.930;2022-07-24T07:07:22;98824.94;;;27.70;49.04
10658;BME280;5377;43.276;26.930;2022-07-24T07:09:50;98838.91;;;27.82;48.76
10658;BME280;5377;43.276;26.930;2022-07-24T07:12:16;98832.88;;;27.98;48.71
10658;BME280;5377;43.276;26.930;2022-07-24T07:14:43;98839.84;;;28.12;48.03
10658;BME280;5377;43.276;26.930;2022-07-24T07:17:10;98822.69;;;28.24;48.29
10658;BME280;5377;43.276;26.930;2022-07-24T07:19:37;98820.56;;;28.47;47.35
10658;BME280;5377;43.276;26.930;2022-07-24T07:22:05;98820.66;;;28.59;46.18
10658;BME280;5377;43.276;26.930;2022-07-24T07:24:32;98823.56;;;28.63;46.33
10658;BME280;5377;43.276;26.930;2022-07-24T07:26:59;98806.22;;;28.62;46.30
10658;BME280;5377;43.276;26.930;2022-07-24T07:29:26;98810.69;;;28.84;46.19
10658;BME280;5377;43.276;26.930;2022-07-24T07:31:53;98783.47;;;28.82;44.83
10658;BME280;5377;43.276;26.930;2022-07-24T07:34:20;98806.34;;;29.12;45.09
10658;BME280;5377;43.276;26.930;2022-07-24T07:36:46;98799.47;;;29.27;44.63
10658;BME280;5377;43.276;26.930;2022-07-24T07:39:15;98805.00;;;29.48;43.57
10658;BME280;5377;43.276;26.930;2022-07-24T07:41:41;98798.19;;;29.54;43.57
10658;BME280;5377;43.276;26.930;2022-07-24T07:44:08;98799.44;;;29.77;42.83
10658;BME280;5377;43.276;26.930;2022-07-24T07:46:35;98786.84;;;29.89;42.80
10658;BME280;5377;43.276;26.930;2022-07-24T07:49:02;98790.47;;;30.01;42.16
10658;BME280;5377;43.276;26.930;2022-07-24T07:51:29;98793.56;;;30.00;41.60
10658;BME280;5377;43.276;26.930;2022-07-24T07:53:56;98791.56;;;30.09;41.54
10658;BME280;5377;43.276;26.930;2022-07-24T07:56:24;98787.69;;;30.22;41.70
10658;BME280;5377;43.276;26.930;2022-07-24T07:58:51;98782.63;;;30.24;41.35
10658;BME280;5377;43.276;26.930;2022-07-24T08:01:18;98754.66;;;30.26;41.95
10658;BME280;5377;43.276;26.930;2022-07-24T08:03:45;98785.50;;;30.61;41.52
10658;BME280;5377;43.276;26.930;2022-07-24T08:06:12;98783.78;;;30.68;42.91
10658;BME280;5377;43.276;26.930;2022-07-24T08:08:38;98781.38;;;30.91;40.91
10658;BME280;5377;43.276;26.930;2022-07-24T08:11:05;98791.53;;;30.99;40.74
10658;BME280;5377;43.276;26.930;2022-07-24T08:13:34;98789.69;;;31.28;41.96
10658;BME280;5377;43.276;26.930;2022-07-24T08:16:00;98784.13;;;31.40;42.14
10658;BME280;5377;43.276;26.930;2022-07-24T08:18:27;98791.31;;;31.29;40.88
10658;BME280;5377;43.276;26.930;2022-07-24T08:20:54;98785.41;;;31.18;39.27
10658;BME280;5377;43.276;26.930;2022-07-24T08:23:21;98795.47;;;31.23;39.37
10658;BME280;5377;43.276;26.930;2022-07-24T08:25:48;98777.69;;;31.12;39.42
10658;BME280;5377;43.276;26.930;2022-07-24T08:28:15;98770.53;;;31.11;39.43
10658;BME280;5377;43.276;26.930;2022-07-24T08:30:43;98784.06;;;31.24;38.21
10658;BME280;5377;43.276;26.930;2022-07-24T08:33:10;98768.31;;;31.41;39.12
10658;BME280;5377;43.276;26.930;2022-07-24T08:35:37;98785.25;;;31.63;38.78
10658;BME280;5377;43.276;26.930;2022-07-24T08:38:04;98781.75;;;31.67;36.98
10658;BME280;5377;43.276;26.930;2022-07-24T08:40:33;98785.50;;;31.99;37.40
10658;BME280;5377;43.276;26.930;2022-07-24T08:43:02;98569.97;;;31.04;36.16
10658;BME280;5377;43.276;26.930;2022-07-24T08:45:29;98779.91;;;32.70;35.97
10658;BME280;5377;43.276;26.930;2022-07-24T08:48:02;98763.34;;;32.74;34.48
10658;BME280;5377;43.276;26.930;2022-07-24T08:50:31;98776.41;;;33.05;34.25
10658;BME280;5377;43.276;26.930;2022-07-24T08:52:58;98771.00;;;33.43;33.37
10658;BME280;5377;43.276;26.930;2022-07-24T08:55:26;98766.41;;;33.70;32.83
10658;BME280;5377;43.276;26.930;2022-07-24T08:57:55;98766.41;;;33.90;32.83
10658;BME280;5377;43.276;26.930;2022-07-24T09:00:22;98763.72;;;33.93;32.18
10658;BME280;5377;43.276;26.930;2022-07-24T09:02:49;98769.94;;;34.29;31.54
10658;BME280;5377;43.276;26.930;2022-07-24T09:05:18;98768.88;;;34.33;32.21
10658;BME280;5377;43.276;26.930;2022-07-24T09:07:46;98756.34;;;34.43;30.52
10658;BME280;5377;43.276;26.930;2022-07-24T09:10:15;98752.63;;;34.81;30.52
10658;BME280;5377;43.276;26.930;2022-07-24T09:12:44;98771.50;;;34.91;29.96
10658;BME280;5377;43.276;26.930;2022-07-24T09:15:13;98753.09;;;34.83;29.60
10658;BME280;5377;43.276;26.930;2022-07-24T09:17:49;98757.34;;;35.30;29.36
10658;BME280;5377;43.276;26.930;2022-07-24T09:20:17;98766.66;;;35.11;28.98
10658;BME280;5377;43.276;26.930;2022-07-24T09:22:44;98751.78;;;35.30;29.80
10658;BME280;5377;43.276;26.930;2022-07-24T09:25:14;98756.13;;;35.84;29.59
10658;BME280;5377;43.276;26.930;2022-07-24T09:27:45;98748.28;;;35.63;29.34
10658;BME280;5377;43.276;26.930;2022-07-24T09:30:25;98701.13;;;35.47;29.07
10658;BME280;5377;43.276;26.930;2022-07-24T09:32:54;98759.13;;;36.02;28.66
10658;BME280;5377;43.276;26.930;2022-07-24T09:35:30;98752.13;;;35.51;29.47
10658;BME280;5377;43.276;26.930;2022-07-24T09:37:59;98746.78;;;36.03;29.17
10658;BME280;5377;43.276;26.930;2022-07-24T09:40:29;98737.97;;;36.34;28.33
10658;BME280;5377;43.276;26.930;2022-07-24T09:43:12;98720.22;;;35.45;28.36
10658;BME280;5377;43.276;26.930;2022-07-24T09:45:53;98716.06;;;35.36;28.99
10658;BME280;5377;43.276;26.930;2022-07-24T09:48:23;98729.66;;;35.71;29.32
10658;BME280;5377;43.276;26.930;2022-07-24T09:50:52;98737.56;;;35.99;29.09
10658;BME280;5377;43.276;26.930;2022-07-24T09:53:21;98741.31;;;36.10;28.86
10658;BME280;5377;43.276;26.930;2022-07-24T09:56:03;98721.97;;;35.90;28.52
10658;BME280;5377;43.276;26.930;2022-07-24T09:58:31;98724.34;;;36.29;28.31
10658;BME280;5377;43.276;26.930;2022-07-24T10:01:00;98728.56;;;36.49;28.88
10658;BME280;5377;43.276;26.930;2022-07-24T10:03:28;98712.28;;;36.18;28.29
10658;BME280;5377;43.276;26.930;2022-07-24T10:05:59;98721.84;;;36.17;28.50
10658;BME280;5377;43.276;26.930;2022-07-24T10:08:27;98731.94;;;35.91;29.44
10658;BME280;5377;43.276;26.930;2022-07-24T10:10:54;98722.44;;;36.00;29.30
10658;BME280;5377;43.276;26.930;2022-07-24T10:13:21;98725.19;;;35.96;29.22
10658;BME280;5377;43.276;26.930;2022-07-24T10:15:56;98726.03;;;36.37;29.03
10658;BME280;5377;43.276;26.930;2022-07-24T10:18:34;98728.16;;;36.10;27.98
10658;BME280;5377;43.276;26.930;2022-07-24T10:21:09;98720.78;;;35.91;27.90
10658;BME280;5377;43.276;26.930;2022-07-24T10:26:48;98707.28;;;36.34;27.74
10658;BME280;5377;43.276;26.930;2022-07-24T10:29:16;98711.94;;;36.67;28.78
10658;BME280;5377;43.276;26.930;2022-07-24T10:31:44;98701.75;;;36.82;28.57
10658;BME280;5377;43.276;26.930;2022-07-24T10:34:18;98690.72;;;37.10;27.77
10658;BME280;5377;43.276;26.930;2022-07-24T10:36:55;98683.53;;;37.06;28.20
10658;BME280;5377;43.276;26.930;2022-07-24T10:39:28;98684.34;;;37.10;27.22
10658;BME280;5377;43.276;26.930;2022-07-24T10:42:01;98690.34;;;37.12;27.43
10658;BME280;5377;43.276;26.930;2022-07-24T10:44:28;98670.03;;;37.15;27.62
10658;BME280;5377;43.276;26.930;2022-07-24T10:47:00;98668.09;;;37.26;26.71
10658;BME280;5377;43.276;26.930;2022-07-24T10:49:45;98696.59;;;37.60;26.38
10658;BME280;5377;43.276;26.930;2022-07-24T10:52:24;98686.00;;;38.19;26.00
10658;BME280;5377;43.276;26.930;2022-07-24T10:55:23;98682.34;;;38.12;25.92
10658;BME280;5377;43.276;26.930;2022-07-24T10:57:55;98661.50;;;37.73;26.00
10658;BME280;5377;43.276;26.930;2022-07-24T11:00:24;98673.94;;;37.94;26.69
10658;BME280;5377;43.276;26.930;2022-07-24T11:02:56;98675.16;;;38.14;25.94
10658;BME280;5377;43.276;26.930;2022-07-24T11:05:29;98649.25;;;38.31;25.74
10658;BME280;5377;43.276;26.930;2022-07-24T11:08:25;98661.56;;;38.13;25.78
10658;BME280;5377;43.276;26.930;2022-07-24T11:10:58;98674.81;;;38.19;26.86
10658;BME280;5377;43.276;26.930;2022-07-24T11:13:55;98662.44;;;38.20;25.78
10658;BME280;5377;43.276;26.930;2022-07-24T11:16:26;98641.03;;;37.41;26.22
10658;BME280;5377;43.276;26.930;2022-07-24T11:22:10;98641.19;;;37.91;26.02
10658;BME280;5377;43.276;26.930;2022-07-24T11:25:06;98634.41;;;37.92;26.37
10658;BME280;5377;43.276;26.930;2022-07-24T11:27:45;98624.31;;;37.48;26.50
10658;BME280;5377;43.276;26.930;2022-07-24T11:30:13;98575.88;;;37.19;26.74
10658;BME280;5377;43.276;26.930;2022-07-24T11:32:41;98639.91;;;37.63;26.56
10658;BME280;5377;43.276;26.930;2022-07-24T11:35:08;98635.44;;;37.41;26.80
10658;BME280;5377;43.276;26.930;2022-07-24T11:37:36;98620.16;;;37.17;26.90
10658;BME280;5377;43.276;26.930;2022-07-24T11:40:06;98626.66;;;37.42;26.76
10658;BME280;5377;43.276;26.930;2022-07-24T11:42:33;98616.34;;;37.57;26.63
10658;BME280;5377;43.276;26.930;2022-07-24T11:45:01;98634.97;;;37.25;27.37
10658;BME280;5377;43.276;26.930;2022-07-24T11:47:28;98610.28;;;36.65;28.09
10658;BME280;5377;43.276;26.930;2022-07-24T11:49:56;98630.50;;;36.47;28.00
10658;BME280;5377;43.276;26.930;2022-07-24T11:52:26;98624.09;;;36.43;27.92
10658;BME280;5377;43.276;26.930;2022-07-24T11:54:56;98618.44;;;36.36;28.31
10658;BME280;5377;43.276;26.930;2022-07-24T11:57:27;98609.22;;;36.80;27.54
10658;BME280;5377;43.276;26.930;2022-07-24T11:59:54;98602.09;;;36.93;27.42
10658;BME280;5377;43.276;26.930;2022-07-24T12:02:22;98601.16;;;36.75;27.76
10658;BME280;5377;43.276;26.930;2022-07-24T12:04:50;98601.13;;;36.68;28.07
10658;BME280;5377;43.276;26.930;2022-07-24T12:07:20;98598.03;;;36.80;27.91
10658;BME280;5377;43.276;26.930;2022-07-24T12:09:49;98605.44;;;36.58;27.67
10658;BME280;5377;43.276;26.930;2022-07-24T12:12:21;98607.09;;;36.15;28.15
10658;BME280;5377;43.276;26.930;2022-07-24T12:14:51;98578.41;;;36.14;27.58
10658;BME280;5377;43.276;26.930;2022-07-24T12:17:18;98600.06;;;36.87;28.01
10658;BME280;5377;43.276;26.930;2022-07-24T12:19:55;98586.31;;;37.33;26.97
10658;BME280;5377;43.276;26.930;2022-07-24T12:22:24;98601.25;;;37.94;26.61
10658;BME280;5377;43.276;26.930;2022-07-24T12:24:53;98588.06;;;38.05;25.93
10658;BME280;5377;43.276;26.930;2022-07-24T12:27:33;98591.66;;;38.52;25.62
10658;BME280;5377;43.276;26.930;2022-07-24T12:30:03;98584.88;;;38.53;25.00
10658;BME280;5377;43.276;26.930;2022-07-24T12:32:30;98567.25;;;38.59;25.76
10658;BME280;5377;43.276;26.930;2022-07-24T12:34:57;98578.44;;;38.49;25.30
10658;BME280;5377;43.276;26.930;2022-07-24T12:37:24;98568.09;;;38.38;25.37
10658;BME280;5377;43.276;26.930;2022-07-24T12:39:52;98572.09;;;37.88;26.04
10658;BME280;5377;43.276;26.930;2022-07-24T12:42:29;98570.47;;;38.36;26.09
10658;BME280;5377;43.276;26.930;2022-07-24T12:45:08;98553.31;;;38.24;25.22
10658;BME280;5377;43.276;26.930;2022-07-24T12:48:05;98566.50;;;38.34;25.49
10658;BME280;5377;43.276;26.930;2022-07-24T12:50:33;98528.13;;;38.06;25.96
10658;BME280;5377;43.276;26.930;2022-07-24T12:53:03;98538.06;;;38.50;25.82
10658;BME280;5377;43.276;26.930;2022-07-24T12:55:30;98549.56;;;38.94;24.96
10658;BME280;5377;43.276;26.930;2022-07-24T12:58:00;98553.69;;;38.61;25.02
10658;BME280;5377;43.276;26.930;2022-07-24T13:00:29;98499.34;;;38.30;25.44
10658;BME280;5377;43.276;26.930;2022-07-24T13:02:56;98472.22;;;37.77;25.63
10658;BME280;5377;43.276;26.930;2022-07-24T13:05:36;98534.09;;;37.62;26.00
10658;BME280;5377;43.276;26.930;2022-07-24T13:08:04;98510.97;;;37.97;25.19
10658;BME280;5377;43.276;26.930;2022-07-24T13:10:31;98516.94;;;38.27;25.49
10658;BME280;5377;43.276;26.930;2022-07-24T13:12:58;98524.13;;;38.00;25.67
10658;BME280;5377;43.276;26.930;2022-07-24T13:15:25;98513.75;;;38.04;25.73